Monatstabelle

Bitte in den Auwahlmenüs den gewünschte Zeiraum wählen und die Schaltfläche "Anfrage absenden" betätigen. Beginn der Aufzeichnung ist 2007 - Dezember. Vor diesem Zeitraum sind keine Daten verfügbar.

2019 - Februar

 

Datum Temperatur (°C) Luftdruck (hPa) Luftfeuchte (%) Regen
(l/m²)
Wind (km/h)
avg: min: max: avg: min: max: avg: min: max: avg: max:
01.02.2019 5,8 -0,5 9,1 996,5 994,3 999,7 78 62 84 0,0 14,3 23,3
02.02.2019 10,7 7,4 15,9 998,3 994,2 1000,1 75 62 82 0,0 6,3 23,5
03.02.2019 4,8 2,9 7,5 1007,5 999,1 1015,6 75 60 90 3,8 5,8 15,8
04.02.2019 0,4 -3,7 5,9 1026,0 1015,6 1027,5 71 56 83 0,0 7,2 22,0
05.02.2019 -1,8 -5,7 5,7 1025,5 1024,7 1026,9 80 61 90 0,0 1,4 9,0
06.02.2019 -2,1 -5,4 4,7 1024,8 1022,6 1027,9 82 69 90 0,0 3,1 13,7
07.02.2019 -1,5 -9,1 7,3 1016,3 1014,7 1022,6 80 64 90 0,1 1,6 4,7
08.02.2019 4,1 -2,4 11,1 1018,2 1016,1 1020,9 72 51 90 0,0 3,8 13,2
09.02.2019 6,3 0,9 13,0 1014,6 1012,2 1016,2 69 53 81 0,0 0,9 13,0
10.02.2019 5,7 -1,3 10,1 1003,8 998,8 1016,2 75 63 90 1,1 3,7 18,5
11.02.2019 6,0 4,5 7,9 1010,3 1001,6 1015,9 63 57 81 0,0 18,4 30,1
12.02.2019 2,6 0,6 7,1 1025,0 1015,9 1029,1 74 49 88 0,0 19,8 31,1
13.02.2019 3,4 0,8 9,0 1031,1 1029,1 1032,3 68 55 76 0,0 6,4 18,3
14.02.2019 4,3 -1,3 11,9 1031,2 1030,3 1033,4 72 58 80 0,0 4,4 19,3
15.02.2019 4,7 0,0 12,7 1029,9 1028,8 1032,2 69 48 82 0,0 4,5 18,2
16.02.2019 5,1 -1,4 16,9 1027,0 1025,8 1029,2 69 38 84 0,0 1,4 7,4
17.02.2019 4,6 -1,6 14,9 1023,8 1022,2 1026,3 74 50 84 0,0 1,7 6,9
18.02.2019 3,6 -1,8 13,5 1018,9 1016,4 1022,9 78 57 89 0,0 2,4 8,0
19.02.2019 5,8 -1,8 16,1 1017,3 1015,9 1018,6 69 40 90 0,1 3,6 14,2
20.02.2019 6,1 2,7 10,9 1022,0 1017,4 1023,6 73 54 83 0,0 5,2 15,6
21.02.2019 9,1 0,8 15,2 1023,3 1021,5 1025,5 65 44 88 0,0 6,2 17,4
22.02.2019 2,6 -2,3 9,9 1028,6 1019,9 1035,0 78 62 89 4,0 10,8 22,2
23.02.2019 -3,3 -6,5 2,2 1037,0 1034,9 1039,5 61 44 74 0,0 6,8 16,9
24.02.2019 0,5 -6,9 3,9 1034,0 1033,1 1036,7 61 37 77 0,0 2,5 10,9
25.02.2019 8,6 3,0 15,1 1030,6 1028,5 1033,8 67 54 76 0,0 6,3 19,0
26.02.2019 11,6 4,9 18,1 1025,4 1023,9 1028,7 52 37 76 0,0 13,6 24,5
27.02.2019 7,5 3,1 15,9 1022,2 1018,1 1026,7 55 33 66 0,0 7,8 19,0
28.02.2019 14,3 2,8 21,1 1010,5 1008,9 1018,1 45 25 64 0,0 9,8 24,1
avg. 4,6 1020,7 70   ---
  Summe Regen: 9,2  
 
Min-Datum 07.02.2019 02.02.2019 28.02.2019 --- ---
Min-Zeit 07:44 00:08 12:44 --- ---
Minimum -9,1 994,2 25 --- ---
 

Max-Datum

28.02.2019 23.02.2019 03.02.2019 22.02.2019 12.02.2019
Max-Zeit 13:12 09:48 08:00 05:40 10:32
Maximum 21,1 1039,5 90 4,0 31,1
 

 

  Letztes Jahr
gleiches Monat
Eistage max < 0°C 0 5
Frosttage min < 0°C 15 25
Sommertage max >=25°C 0 0
Heiße Tage max >=30°C 0 0

 

<<< nach oben >>>